createdAt,value
2022-11-11T00:02:02.319Z,17.55
2022-11-11T00:04:36.152Z,17.60
2022-11-11T00:07:11.718Z,17.77
2022-11-11T00:09:45.252Z,17.30
2022-11-11T00:12:19.221Z,17.57
2022-11-11T00:14:52.745Z,17.51
2022-11-11T00:17:43.575Z,17.75
2022-11-11T00:20:35.140Z,17.63
2022-11-11T00:23:39.477Z,17.28
2022-11-11T00:26:38.445Z,17.61
2022-11-11T00:29:09.141Z,17.69
2022-11-11T00:31:56.165Z,17.75
2022-11-11T00:34:29.812Z,17.60
2022-11-11T00:37:03.031Z,17.81
2022-11-11T00:39:38.321Z,17.60
2022-11-11T00:42:11.966Z,17.68
2022-11-11T00:44:45.706Z,17.40
2022-11-11T00:47:36.431Z,17.30
2022-11-11T00:50:32.511Z,17.62
2022-11-11T00:53:09.730Z,17.58
2022-11-11T00:55:45.303Z,17.93
2022-11-11T00:58:18.970Z,18.02
2022-11-11T01:00:54.255Z,17.90
2022-11-11T01:03:29.474Z,17.81
2022-11-11T01:06:03.800Z,17.40
2022-11-11T01:08:37.398Z,17.69
2022-11-11T01:11:17.489Z,17.88
2022-11-11T01:13:52.270Z,17.91
2022-11-11T01:16:27.986Z,18.02
2022-11-11T01:19:01.693Z,18.15
2022-11-11T01:21:34.548Z,18.25
2022-11-11T01:24:07.854Z,17.94
2022-11-11T01:26:42.648Z,18.27
2022-11-11T01:29:16.408Z,18.02
2022-11-11T01:31:50.371Z,18.01
2022-11-11T01:34:24.291Z,17.91
2022-11-11T01:36:57.888Z,17.84
2022-11-11T01:39:31.778Z,17.93
2022-11-11T01:42:07.157Z,17.83
2022-11-11T01:44:47.212Z,17.73
2022-11-11T01:47:22.001Z,17.88
2022-11-11T01:49:59.847Z,17.34
2022-11-11T01:52:38.698Z,17.92
2022-11-11T01:55:18.549Z,17.98
2022-11-11T01:57:58.167Z,18.03
2022-11-11T02:00:32.388Z,18.14
2022-11-11T02:03:10.177Z,18.05
2022-11-11T02:05:43.973Z,18.06
2022-11-11T02:08:34.103Z,18.35
2022-11-11T02:11:12.709Z,18.28
2022-11-11T02:14:05.707Z,18.22
2022-11-11T02:16:39.420Z,18.25
2022-11-11T02:19:13.719Z,18.11
2022-11-11T02:21:59.799Z,17.85
2022-11-11T02:24:35.528Z,18.00
2022-11-11T02:27:13.616Z,17.82
2022-11-11T02:29:52.025Z,17.80
2022-11-11T02:32:25.648Z,17.78
2022-11-11T02:34:59.410Z,17.63
2022-11-11T02:37:32.555Z,17.71
2022-11-11T02:40:10.651Z,17.79
2022-11-11T02:42:47.470Z,18.06
2022-11-11T02:45:21.294Z,18.02
2022-11-11T02:47:55.023Z,18.10
2022-11-11T02:50:28.797Z,18.23
2022-11-11T02:53:02.550Z,18.02
2022-11-11T02:55:37.840Z,18.05
2022-11-11T02:58:12.008Z,18.20
2022-11-11T03:00:46.040Z,18.14
2022-11-11T03:03:19.882Z,18.27
2022-11-11T03:05:53.677Z,17.79
2022-11-11T03:08:27.317Z,18.09
2022-11-11T03:11:02.730Z,18.00
2022-11-11T03:13:35.687Z,17.96
2022-11-11T03:16:30.015Z,18.15
2022-11-11T03:19:02.544Z,17.89
2022-11-11T03:24:50.204Z,17.99
2022-11-11T03:27:25.414Z,18.06
2022-11-11T03:29:58.212Z,18.06
2022-11-11T03:32:31.919Z,17.87
2022-11-11T03:35:05.871Z,17.27
2022-11-11T03:37:56.497Z,17.75
2022-11-11T03:40:30.104Z,17.65
2022-11-11T03:43:05.842Z,17.75
2022-11-11T03:45:39.434Z,17.28
2022-11-11T03:48:13.342Z,17.60
2022-11-11T03:50:48.798Z,17.62
2022-11-11T03:53:23.952Z,17.38
2022-11-11T03:55:57.909Z,17.60
2022-11-11T03:58:33.154Z,17.72
2022-11-11T04:01:27.031Z,17.72
2022-11-11T04:04:17.708Z,17.73
2022-11-11T04:07:22.913Z,17.44
2022-11-11T04:10:13.732Z,17.62
2022-11-11T04:13:04.529Z,17.66
2022-11-11T04:15:56.717Z,17.43
2022-11-11T04:18:47.579Z,17.49
2022-11-11T04:21:43.681Z,17.60
2022-11-11T04:24:35.994Z,17.20
2022-11-11T04:27:12.412Z,17.63
2022-11-11T04:29:47.216Z,17.61
2022-11-11T04:32:40.156Z,17.59
2022-11-11T04:35:15.225Z,17.69
2022-11-11T04:37:50.964Z,17.42
2022-11-11T04:40:41.738Z,17.58
2022-11-11T04:43:15.499Z,17.76
2022-11-11T04:45:47.979Z,17.54
2022-11-11T04:48:23.385Z,17.93
2022-11-11T04:50:57.023Z,17.81
2022-11-11T04:53:30.911Z,17.78
2022-11-11T04:56:21.573Z,17.88
2022-11-11T04:59:16.048Z,17.99
2022-11-11T05:02:18.406Z,17.60
2022-11-11T05:04:53.590Z,17.79
2022-11-11T05:07:44.177Z,17.80
2022-11-11T05:10:18.240Z,17.83
2022-11-11T05:12:51.867Z,17.75
2022-11-11T05:15:42.308Z,17.64
2022-11-11T05:18:33.746Z,17.65
2022-11-11T05:21:22.901Z,17.84
2022-11-11T05:24:13.916Z,17.60
2022-11-11T05:26:46.911Z,17.73
2022-11-11T05:29:19.804Z,17.56
2022-11-11T05:31:53.444Z,17.63
2022-11-11T05:34:27.006Z,17.55
2022-11-11T05:37:02.246Z,17.67
2022-11-11T05:39:35.870Z,17.69
2022-11-11T05:42:09.960Z,17.83
2022-11-11T05:44:43.652Z,17.64
2022-11-11T05:47:17.413Z,17.70
2022-11-11T05:49:52.206Z,17.80
2022-11-11T05:52:27.114Z,17.75
2022-11-11T05:55:00.645Z,17.88
2022-11-11T05:57:34.323Z,17.54
2022-11-11T06:00:09.108Z,17.56
2022-11-11T06:02:41.995Z,17.85
2022-11-11T06:05:14.858Z,17.70
2022-11-11T06:07:55.009Z,17.66
2022-11-11T06:10:34.140Z,17.67
2022-11-11T06:13:10.536Z,17.61
2022-11-11T06:15:44.224Z,17.57
2022-11-11T06:18:18.263Z,17.68
2022-11-11T06:20:55.367Z,17.66
2022-11-11T06:23:31.552Z,17.75
2022-11-11T06:26:14.931Z,17.50
2022-11-11T06:28:50.554Z,17.54
2022-11-11T06:31:26.465Z,17.45
2022-11-11T06:34:00.319Z,17.42
2022-11-11T06:36:33.836Z,17.40
2022-11-11T06:39:09.155Z,17.43
2022-11-11T06:41:42.695Z,17.36
2022-11-11T06:44:16.402Z,17.14
2022-11-11T06:46:49.927Z,17.35
2022-11-11T06:49:23.777Z,17.47
2022-11-11T06:51:56.675Z,17.24
2022-11-11T06:54:31.696Z,17.59
2022-11-11T06:57:08.569Z,17.45
2022-11-11T06:59:42.661Z,17.64
2022-11-11T07:02:16.692Z,17.60
2022-11-11T07:04:50.530Z,17.47
2022-11-11T07:07:24.277Z,17.53
2022-11-11T07:09:59.639Z,17.22
2022-11-11T07:12:33.182Z,17.46
2022-11-11T07:15:07.495Z,17.59
2022-11-11T07:17:40.700Z,17.63
2022-11-11T07:20:14.450Z,17.63
2022-11-11T07:22:48.011Z,17.36
2022-11-11T07:25:23.243Z,17.41
2022-11-11T07:27:59.311Z,17.60
2022-11-11T07:30:33.308Z,17.64
2022-11-11T07:33:07.514Z,17.65
2022-11-11T07:35:41.216Z,17.43
2022-11-11T07:38:14.785Z,17.75
2022-11-11T07:40:49.999Z,17.41
2022-11-11T07:43:25.291Z,17.46
2022-11-11T07:46:00.882Z,17.65
2022-11-11T07:48:34.537Z,17.62
2022-11-11T07:51:08.649Z,17.57
2022-11-11T07:53:42.472Z,17.62
2022-11-11T07:56:16.692Z,17.66
2022-11-11T07:58:50.326Z,17.70
2022-11-11T08:01:23.707Z,17.76
2022-11-11T08:03:56.605Z,17.80
2022-11-11T08:06:30.309Z,17.57
2022-11-11T08:09:03.994Z,17.70
2022-11-11T08:11:56.384Z,17.55
2022-11-11T08:14:30.121Z,17.84
2022-11-11T08:17:03.807Z,17.70
2022-11-11T08:19:37.434Z,17.90
2022-11-11T08:22:11.165Z,17.46
2022-11-11T08:25:02.800Z,17.77
2022-11-11T08:27:39.646Z,17.89
2022-11-11T08:30:13.653Z,17.97
2022-11-11T08:33:00.506Z,17.65
2022-11-11T08:35:40.922Z,17.76
2022-11-11T08:38:15.202Z,17.96
2022-11-11T08:40:48.920Z,17.95
2022-11-11T08:43:24.630Z,17.95
2022-11-11T08:45:58.449Z,18.01
2022-11-11T08:48:32.744Z,17.94
2022-11-11T08:51:06.448Z,17.73
2022-11-11T08:53:40.126Z,18.14
2022-11-11T08:56:13.131Z,18.14
2022-11-11T08:58:48.543Z,18.19
2022-11-11T09:01:21.544Z,18.18
2022-11-11T09:03:54.983Z,18.28
2022-11-11T09:06:29.664Z,18.31
2022-11-11T09:09:03.849Z,18.23
2022-11-11T09:11:37.601Z,18.30
2022-11-11T09:14:12.722Z,18.29
2022-11-11T09:16:46.480Z,18.12
2022-11-11T09:19:20.185Z,18.30
2022-11-11T09:21:54.231Z,18.17
2022-11-11T09:24:27.967Z,18.28
2022-11-11T09:27:00.849Z,18.32
2022-11-11T09:29:36.086Z,18.33
2022-11-11T09:32:09.646Z,18.32
2022-11-11T09:34:43.651Z,18.18
2022-11-11T09:37:16.517Z,18.05
2022-11-11T09:39:50.176Z,18.26
2022-11-11T09:42:35.861Z,18.10
2022-11-11T09:45:21.586Z,18.49
2022-11-11T09:48:07.643Z,18.40
2022-11-11T09:50:54.710Z,18.65
2022-11-11T09:53:34.602Z,18.55
2022-11-11T09:56:29.716Z,18.13
2022-11-11T09:59:09.837Z,18.33
2022-11-11T10:01:50.637Z,18.46
2022-11-11T10:04:33.212Z,18.47
2022-11-11T10:07:15.354Z,18.64
2022-11-11T10:09:55.811Z,18.60
2022-11-11T10:12:43.155Z,18.77
2022-11-11T10:15:17.656Z,19.06
2022-11-11T10:18:06.718Z,18.79
2022-11-11T10:20:43.661Z,18.80
2022-11-11T10:23:19.554Z,18.94
2022-11-11T10:25:56.026Z,18.84
2022-11-11T10:28:34.778Z,18.78
2022-11-11T10:31:16.395Z,18.94
2022-11-11T10:33:55.691Z,19.10
2022-11-11T10:36:36.886Z,18.83
2022-11-11T10:39:14.671Z,18.44
2022-11-11T10:41:49.986Z,18.72
2022-11-11T10:44:26.665Z,18.52
2022-11-11T10:47:07.781Z,18.82
2022-11-11T10:49:48.973Z,18.53
2022-11-11T10:52:26.801Z,18.39
2022-11-11T10:55:06.375Z,18.70
2022-11-11T10:57:45.652Z,18.73
2022-11-11T11:00:19.752Z,18.48
2022-11-11T11:03:01.334Z,18.61
2022-11-11T11:05:44.800Z,18.69
2022-11-11T11:09:04.246Z,18.68
2022-11-11T11:11:43.527Z,18.95
2022-11-11T11:14:22.385Z,18.21
2022-11-11T11:17:00.638Z,18.62
2022-11-11T11:19:33.468Z,18.74
2022-11-11T11:22:06.328Z,18.98
2022-11-11T11:24:43.874Z,18.88
2022-11-11T11:27:27.929Z,18.85
2022-11-11T11:30:16.785Z,18.94
2022-11-11T11:32:59.949Z,19.01
2022-11-11T11:35:36.454Z,19.01
2022-11-11T11:38:11.735Z,19.07
2022-11-11T11:40:56.362Z,18.78
2022-11-11T11:43:36.007Z,18.98
2022-11-11T11:46:20.582Z,18.94
2022-11-11T11:49:08.092Z,19.12
2022-11-11T11:51:49.086Z,19.31
2022-11-11T11:54:49.154Z,19.07
2022-11-11T11:57:37.522Z,19.30
2022-11-11T12:00:19.377Z,19.06
2022-11-11T12:03:22.664Z,19.01
2022-11-11T12:06:05.092Z,19.15
2022-11-11T12:08:53.706Z,19.49
2022-11-11T12:11:37.560Z,19.38
2022-11-11T12:14:39.840Z,19.40
2022-11-11T12:17:28.189Z,19.33
2022-11-11T12:20:12.509Z,19.43
2022-11-11T12:23:05.041Z,19.39
2022-11-11T12:25:54.376Z,19.41
2022-11-11T12:28:42.521Z,18.78
2022-11-11T12:31:28.909Z,19.06
2022-11-11T12:34:13.671Z,19.38
2022-11-11T12:37:00.816Z,19.05
2022-11-11T12:39:54.038Z,19.18
2022-11-11T12:42:40.950Z,19.26
2022-11-11T12:45:20.179Z,19.75
2022-11-11T12:48:05.074Z,19.61
2022-11-11T12:50:46.558Z,19.42
2022-11-11T12:53:31.155Z,19.41
2022-11-11T12:56:14.392Z,19.40
2022-11-11T12:58:53.237Z,19.52
2022-11-11T13:01:40.323Z,19.18
2022-11-11T13:04:34.793Z,19.41
2022-11-11T13:07:50.604Z,19.63
2022-11-11T13:10:32.432Z,19.73
2022-11-11T13:13:24.488Z,19.87
2022-11-11T13:16:00.410Z,19.00
2022-11-11T13:18:44.067Z,19.30
2022-11-11T13:21:24.465Z,19.11
2022-11-11T13:23:58.356Z,19.29
2022-11-11T13:26:38.550Z,19.39
2022-11-11T13:29:51.747Z,19.17
2022-11-11T13:32:32.245Z,19.48
2022-11-11T13:35:17.348Z,19.07
2022-11-11T13:37:52.140Z,19.35
2022-11-11T13:40:35.576Z,19.29
2022-11-11T13:43:19.024Z,19.06
2022-11-11T13:45:55.196Z,19.18
2022-11-11T13:48:30.892Z,19.25
2022-11-11T13:51:26.093Z,19.16
2022-11-11T13:54:03.665Z,19.47
2022-11-11T13:56:43.517Z,19.09
2022-11-11T13:59:24.861Z,19.28
2022-11-11T14:02:33.352Z,18.98
2022-11-11T14:05:26.367Z,19.54
2022-11-11T14:08:00.164Z,19.45
2022-11-11T14:11:00.401Z,19.54
2022-11-11T14:13:41.446Z,19.02
2022-11-11T14:16:53.214Z,19.53
2022-11-11T14:19:32.794Z,19.31
2022-11-11T14:22:33.747Z,19.05
2022-11-11T14:25:22.185Z,18.98
2022-11-11T14:27:56.668Z,19.43
2022-11-11T14:30:39.331Z,19.39
2022-11-11T14:33:24.675Z,19.35
2022-11-11T14:36:03.411Z,19.45
2022-11-11T14:38:49.945Z,19.59
2022-11-11T14:41:53.098Z,18.99
2022-11-11T14:44:44.804Z,19.45
2022-11-11T14:47:26.289Z,19.38
2022-11-11T14:50:00.412Z,19.28
2022-11-11T14:52:39.442Z,19.13
2022-11-11T14:55:19.996Z,19.22
2022-11-11T14:57:59.743Z,19.10
2022-11-11T15:00:45.014Z,19.03
2022-11-11T15:03:28.360Z,19.22
2022-11-11T15:06:06.362Z,19.39
2022-11-11T15:08:51.869Z,19.05
2022-11-11T15:11:33.065Z,19.05
2022-11-11T15:14:31.773Z,19.26
2022-11-11T15:17:20.980Z,18.66
2022-11-11T15:20:12.113Z,19.28
2022-11-11T15:22:56.863Z,18.98
2022-11-11T15:25:46.232Z,19.14
2022-11-11T15:28:40.191Z,19.34
2022-11-11T15:31:24.146Z,18.97
2022-11-11T15:34:11.915Z,19.20
2022-11-11T15:37:05.350Z,19.60
2022-11-11T15:39:42.707Z,19.66
2022-11-11T15:42:27.977Z,19.40
2022-11-11T15:45:05.144Z,19.02
2022-11-11T15:47:39.284Z,19.38
2022-11-11T15:50:34.500Z,19.50
2022-11-11T15:53:13.565Z,19.17
2022-11-11T15:55:54.444Z,18.81
2022-11-11T15:58:29.335Z,19.40
2022-11-11T16:01:06.958Z,19.00
2022-11-11T16:03:43.418Z,19.15
2022-11-11T16:06:18.606Z,19.30
2022-11-11T16:08:56.435Z,19.17
2022-11-11T16:11:29.805Z,18.97
2022-11-11T16:14:08.430Z,19.22
2022-11-11T16:16:43.196Z,19.16
2022-11-11T16:19:28.664Z,19.14
2022-11-11T16:22:11.773Z,19.26
2022-11-11T16:24:46.658Z,19.31
2022-11-11T16:27:23.627Z,19.22
2022-11-11T16:29:57.478Z,19.16
2022-11-11T16:32:36.088Z,19.19
2022-11-11T16:35:26.440Z,18.73
2022-11-11T16:38:03.022Z,18.87
2022-11-11T16:40:42.808Z,19.15
2022-11-11T16:43:25.209Z,19.13
2022-11-11T16:46:04.291Z,18.99
2022-11-11T16:48:50.377Z,18.78
2022-11-11T16:51:39.765Z,18.69
2022-11-11T16:54:18.337Z,18.84
2022-11-11T16:56:55.530Z,18.95
2022-11-11T16:59:40.680Z,18.54
2022-11-11T17:02:18.367Z,18.72
2022-11-11T17:04:54.015Z,18.80
2022-11-11T17:07:32.635Z,18.81
2022-11-11T17:10:17.685Z,18.64
2022-11-11T17:12:52.260Z,18.76
2022-11-11T17:15:25.838Z,18.51
2022-11-11T17:17:59.491Z,18.48
2022-11-11T17:20:33.046Z,18.30
2022-11-11T17:23:07.248Z,18.55
2022-11-11T17:25:41.576Z,18.58
2022-11-11T17:28:21.532Z,18.85
2022-11-11T17:30:55.135Z,18.64
2022-11-11T17:33:29.065Z,18.37
2022-11-11T17:36:02.944Z,18.45
2022-11-11T17:38:38.100Z,18.66
2022-11-11T17:41:16.819Z,18.59
2022-11-11T17:43:49.749Z,18.86
2022-11-11T17:46:23.354Z,18.62
2022-11-11T17:48:57.992Z,18.82
2022-11-11T17:51:31.645Z,18.86
2022-11-11T17:54:09.515Z,18.89
2022-11-11T17:56:45.442Z,18.84
2022-11-11T17:59:19.336Z,18.91
2022-11-11T18:01:52.240Z,19.12
2022-11-11T18:04:25.157Z,18.83
2022-11-11T18:06:58.951Z,18.94
2022-11-11T18:09:32.810Z,19.09
2022-11-11T18:12:08.783Z,19.32
2022-11-11T18:14:42.419Z,18.86
2022-11-11T18:17:16.242Z,19.26
2022-11-11T18:19:49.989Z,19.19
2022-11-11T18:22:23.263Z,18.95
2022-11-11T18:24:57.281Z,19.13
2022-11-11T18:27:31.585Z,19.10
2022-11-11T18:30:05.491Z,19.18
2022-11-11T18:32:39.133Z,19.08
2022-11-11T18:35:12.100Z,19.15
2022-11-11T18:37:46.696Z,18.77
2022-11-11T18:40:19.999Z,18.83
2022-11-11T18:42:55.189Z,18.82
2022-11-11T18:45:29.905Z,18.92
2022-11-11T18:48:03.537Z,19.10
2022-11-11T18:50:37.210Z,18.95
2022-11-11T18:53:10.945Z,19.07
2022-11-11T18:55:44.575Z,18.90
2022-11-11T18:58:18.804Z,18.85
2022-11-11T19:00:52.008Z,18.96
2022-11-11T19:03:25.868Z,18.94
2022-11-11T19:06:03.066Z,19.20
2022-11-11T19:08:37.330Z,19.16
2022-11-11T19:11:12.070Z,19.10
2022-11-11T19:13:46.839Z,18.88
2022-11-11T19:16:23.487Z,18.52
2022-11-11T19:18:57.625Z,18.46
2022-11-11T19:21:33.025Z,18.47
2022-11-11T19:24:09.211Z,18.42
2022-11-11T19:26:44.057Z,18.35
2022-11-11T19:29:19.369Z,18.24
2022-11-11T19:31:53.080Z,18.14
2022-11-11T19:34:26.701Z,17.99
2022-11-11T19:36:59.691Z,17.92
2022-11-11T19:39:33.399Z,17.63
2022-11-11T19:42:07.219Z,17.64
2022-11-11T19:44:42.261Z,17.62
2022-11-11T19:47:16.662Z,17.53
2022-11-11T19:49:50.223Z,17.68
2022-11-11T19:52:23.255Z,17.59
2022-11-11T19:54:57.172Z,17.35
2022-11-11T19:57:31.091Z,17.65
2022-11-11T20:00:08.780Z,17.75
2022-11-11T20:02:42.523Z,17.80
2022-11-11T20:05:15.338Z,17.76
2022-11-11T20:07:48.157Z,17.73
2022-11-11T20:10:21.006Z,17.59
2022-11-11T20:12:54.200Z,17.54
2022-11-11T20:15:28.648Z,17.44
2022-11-11T20:18:02.741Z,17.56
2022-11-11T20:20:35.620Z,17.45
2022-11-11T20:23:08.484Z,17.46
2022-11-11T20:25:41.300Z,17.35
2022-11-11T20:28:14.937Z,17.35
2022-11-11T20:30:50.760Z,17.24
2022-11-11T20:33:23.816Z,17.21
2022-11-11T20:35:56.887Z,17.15
2022-11-11T20:38:30.995Z,17.17
2022-11-11T20:41:05.844Z,17.18
2022-11-11T20:43:39.803Z,17.10
2022-11-11T20:46:16.637Z,16.99
2022-11-11T20:48:52.643Z,16.96
2022-11-11T20:51:27.661Z,16.93
2022-11-11T20:54:01.917Z,16.69
2022-11-11T20:56:35.483Z,16.51
2022-11-11T20:59:09.473Z,16.71
2022-11-11T21:01:44.630Z,16.83
2022-11-11T21:04:18.551Z,16.83
2022-11-11T21:06:52.179Z,16.82
2022-11-11T21:09:25.887Z,16.74
2022-11-11T21:11:59.788Z,16.63
2022-11-11T21:14:33.465Z,16.65
2022-11-11T21:17:08.483Z,16.66
2022-11-11T21:19:42.133Z,16.60
2022-11-11T21:22:15.740Z,16.53
2022-11-11T21:24:49.453Z,16.63
2022-11-11T21:27:22.305Z,16.58
2022-11-11T21:29:56.136Z,16.38
2022-11-11T21:32:30.347Z,16.23
2022-11-11T21:35:03.179Z,16.21
2022-11-11T21:37:36.781Z,16.17
2022-11-11T21:40:10.841Z,16.17
2022-11-11T21:42:43.636Z,16.14
2022-11-11T21:45:17.490Z,16.27
2022-11-11T21:47:52.590Z,16.03
2022-11-11T21:50:26.224Z,16.01
2022-11-11T21:52:59.847Z,16.05
2022-11-11T21:55:32.776Z,16.21
2022-11-11T21:58:05.567Z,15.99
2022-11-11T22:00:38.440Z,16.03
2022-11-11T22:03:13.540Z,16.00
2022-11-11T22:05:47.272Z,16.35
2022-11-11T22:08:20.542Z,16.24
2022-11-11T22:10:55.378Z,16.18
2022-11-11T22:13:28.597Z,16.16
2022-11-11T22:16:04.345Z,16.25
2022-11-11T22:18:43.386Z,16.20
2022-11-11T22:21:21.227Z,15.95
2022-11-11T22:23:56.738Z,16.17
2022-11-11T22:26:33.701Z,16.20
2022-11-11T22:29:09.879Z,16.08
2022-11-11T22:31:44.900Z,16.11
2022-11-11T22:34:20.031Z,15.88
2022-11-11T22:36:53.833Z,15.88
2022-11-11T22:39:27.404Z,15.99
2022-11-11T22:42:01.109Z,16.02
2022-11-11T22:44:34.695Z,15.91
2022-11-11T22:47:08.365Z,15.82
2022-11-11T22:49:42.533Z,15.92
2022-11-11T22:52:16.394Z,15.65
2022-11-11T22:54:49.966Z,15.83
2022-11-11T22:57:26.413Z,15.91
2022-11-11T22:59:59.980Z,15.78
2022-11-11T23:02:33.806Z,15.71
2022-11-11T23:05:09.450Z,15.53
2022-11-11T23:07:43.009Z,15.68
2022-11-11T23:10:18.349Z,15.48
2022-11-11T23:12:54.631Z,15.63
2022-11-11T23:15:31.225Z,15.69
2022-11-11T23:18:04.955Z,15.63
2022-11-11T23:20:39.117Z,15.62
2022-11-11T23:23:11.982Z,15.78
2022-11-11T23:25:45.554Z,15.70
2022-11-11T23:28:18.521Z,15.74
2022-11-11T23:30:52.441Z,15.72
2022-11-11T23:33:25.461Z,15.46
2022-11-11T23:36:02.419Z,15.50
2022-11-11T23:38:36.349Z,15.55
2022-11-11T23:41:10.066Z,15.43
2022-11-11T23:43:43.440Z,15.45
2022-11-11T23:46:17.166Z,15.22
2022-11-11T23:48:51.957Z,15.36
2022-11-11T23:51:27.183Z,15.27
2022-11-11T23:54:01.030Z,15.34
2022-11-11T23:56:35.201Z,14.98
2022-11-11T23:59:09.029Z,15.23
